sensor_id;sensor_type;location;lat;lon;timestamp;P1;durP1;ratioP1;P2;durP2;ratioP2
52512;SDS011;38422;53.172;6.974;2022-08-01T00:01:49;4.97;;;3.13;;
52512;SDS011;38422;53.172;6.974;2022-08-01T00:04:15;7.28;;;3.00;;
52512;SDS011;38422;53.172;6.974;2022-08-01T00:06:41;4.60;;;2.70;;
52512;SDS011;38422;53.172;6.974;2022-08-01T00:09:06;6.95;;;2.80;;
52512;SDS011;38422;53.172;6.974;2022-08-01T00:11:32;5.05;;;2.88;;
52512;SDS011;38422;53.172;6.974;2022-08-01T00:13:58;7.22;;;3.22;;
52512;SDS011;38422;53.172;6.974;2022-08-01T00:16:23;8.95;;;3.60;;
52512;SDS011;38422;53.172;6.974;2022-08-01T00:18:49;7.35;;;3.90;;
52512;SDS011;38422;53.172;6.974;2022-08-01T00:21:16;6.65;;;3.92;;
52512;SDS011;38422;53.172;6.974;2022-08-01T00:23:42;7.10;;;4.30;;
52512;SDS011;38422;53.172;6.974;2022-08-01T00:26:08;8.50;;;4.70;;
52512;SDS011;38422;53.172;6.974;2022-08-01T00:28:34;6.72;;;4.20;;
52512;SDS011;38422;53.172;6.974;2022-08-01T00:30:59;7.57;;;4.20;;
52512;SDS011;38422;53.172;6.974;2022-08-01T00:33:25;6.38;;;3.92;;
52512;SDS011;38422;53.172;6.974;2022-08-01T00:35:51;7.57;;;4.50;;
52512;SDS011;38422;53.172;6.974;2022-08-01T00:38:16;6.82;;;4.07;;
52512;SDS011;38422;53.172;6.974;2022-08-01T00:40:42;8.30;;;3.92;;
52512;SDS011;38422;53.172;6.974;2022-08-01T00:43:07;6.85;;;3.58;;
52512;SDS011;38422;53.172;6.974;2022-08-01T00:45:34;5.40;;;3.42;;
52512;SDS011;38422;53.172;6.974;2022-08-01T00:48:00;3.97;;;2.97;;
52512;SDS011;38422;53.172;6.974;2022-08-01T00:50:25;5.18;;;2.65;;
52512;SDS011;38422;53.172;6.974;2022-08-01T00:52:51;6.78;;;2.60;;
52512;SDS011;38422;53.172;6.974;2022-08-01T00:55:18;4.90;;;2.05;;
52512;SDS011;38422;53.172;6.974;2022-08-01T00:57:45;3.65;;;2.10;;
52512;SDS011;38422;53.172;6.974;2022-08-01T01:00:12;3.83;;;1.95;;
52512;SDS011;38422;53.172;6.974;2022-08-01T01:02:38;3.80;;;1.98;;
52512;SDS011;38422;53.172;6.974;2022-08-01T01:05:04;3.33;;;1.90;;
52512;SDS011;38422;53.172;6.974;2022-08-01T01:13:02;4.13;;;2.20;;
52512;SDS011;38422;53.172;6.974;2022-08-01T01:23:55;3.15;;;1.90;;
52512;SDS011;38422;53.172;6.974;2022-08-01T01:29:38;4.25;;;1.65;;
52512;SDS011;38422;53.172;6.974;2022-08-01T01:32:17;3.58;;;1.52;;
52512;SDS011;38422;53.172;6.974;2022-08-01T01:34:44;3.78;;;1.42;;
52512;SDS011;38422;53.172;6.974;2022-08-01T01:37:14;3.55;;;1.50;;
52512;SDS011;38422;53.172;6.974;2022-08-01T01:39:42;5.97;;;1.58;;
52512;SDS011;38422;53.172;6.974;2022-08-01T01:42:11;3.28;;;1.50;;
52512;SDS011;38422;53.172;6.974;2022-08-01T01:44:38;3.15;;;1.40;;
52512;SDS011;38422;53.172;6.974;2022-08-01T01:47:05;3.85;;;1.58;;
52512;SDS011;38422;53.172;6.974;2022-08-01T01:49:31;3.50;;;1.40;;
52512;SDS011;38422;53.172;6.974;2022-08-01T01:51:58;3.22;;;1.23;;
52512;SDS011;38422;53.172;6.974;2022-08-01T01:54:30;3.80;;;1.38;;
52512;SDS011;38422;53.172;6.974;2022-08-01T01:56:59;3.60;;;1.35;;
52512;SDS011;38422;53.172;6.974;2022-08-01T01:59:28;4.47;;;1.35;;
52512;SDS011;38422;53.172;6.974;2022-08-01T02:01:56;3.90;;;1.55;;
52512;SDS011;38422;53.172;6.974;2022-08-01T02:04:25;3.70;;;1.30;;
52512;SDS011;38422;53.172;6.974;2022-08-01T02:06:53;3.17;;;1.33;;
52512;SDS011;38422;53.172;6.974;2022-08-01T02:09:20;3.90;;;1.58;;
52512;SDS011;38422;53.172;6.974;2022-08-01T02:11:48;5.90;;;1.88;;
52512;SDS011;38422;53.172;6.974;2022-08-01T02:14:15;3.90;;;1.65;;
52512;SDS011;38422;53.172;6.974;2022-08-01T02:16:44;5.47;;;1.40;;
52512;SDS011;38422;53.172;6.974;2022-08-01T02:19:12;4.53;;;1.48;;
52512;SDS011;38422;53.172;6.974;2022-08-01T02:21:55;3.15;;;1.30;;
52512;SDS011;38422;53.172;6.974;2022-08-01T02:25:00;3.70;;;1.15;;
52512;SDS011;38422;53.172;6.974;2022-08-01T02:31:01;5.95;;;1.35;;
52512;SDS011;38422;53.172;6.974;2022-08-01T02:33:36;4.88;;;1.40;;
52512;SDS011;38422;53.172;6.974;2022-08-01T02:36:03;4.57;;;1.38;;
52512;SDS011;38422;53.172;6.974;2022-08-01T02:40:59;6.30;;;1.60;;
52512;SDS011;38422;53.172;6.974;2022-08-01T02:43:38;3.95;;;1.20;;
52512;SDS011;38422;53.172;6.974;2022-08-01T02:46:09;6.63;;;1.60;;
52512;SDS011;38422;53.172;6.974;2022-08-01T02:48:41;7.50;;;1.50;;
52512;SDS011;38422;53.172;6.974;2022-08-01T02:51:08;6.22;;;1.30;;
52512;SDS011;38422;53.172;6.974;2022-08-01T02:53:36;5.65;;;1.40;;
52512;SDS011;38422;53.172;6.974;2022-08-01T02:56:06;5.07;;;1.05;;
52512;SDS011;38422;53.172;6.974;2022-08-01T02:58:33;4.95;;;1.15;;
52512;SDS011;38422;53.172;6.974;2022-08-01T03:01:01;3.90;;;1.30;;
52512;SDS011;38422;53.172;6.974;2022-08-01T03:03:28;6.32;;;1.20;;
52512;SDS011;38422;53.172;6.974;2022-08-01T03:05:54;2.92;;;1.23;;
52512;SDS011;38422;53.172;6.974;2022-08-01T03:08:22;4.47;;;1.00;;
52512;SDS011;38422;53.172;6.974;2022-08-01T03:10:50;4.22;;;1.20;;
52512;SDS011;38422;53.172;6.974;2022-08-01T03:13:18;5.47;;;1.17;;
52512;SDS011;38422;53.172;6.974;2022-08-01T03:15:46;7.30;;;1.50;;
52512;SDS011;38422;53.172;6.974;2022-08-01T03:20:40;5.82;;;1.20;;
52512;SDS011;38422;53.172;6.974;2022-08-01T03:23:08;6.70;;;1.30;;
52512;SDS011;38422;53.172;6.974;2022-08-01T03:25:38;8.95;;;1.45;;
52512;SDS011;38422;53.172;6.974;2022-08-01T03:28:05;5.15;;;1.25;;
52512;SDS011;38422;53.172;6.974;2022-08-01T03:30:33;5.65;;;1.38;;
52512;SDS011;38422;53.172;6.974;2022-08-01T03:33:01;6.88;;;1.30;;
52512;SDS011;38422;53.172;6.974;2022-08-01T03:35:28;6.18;;;1.80;;
52512;SDS011;38422;53.172;6.974;2022-08-01T03:37:57;5.18;;;1.60;;
52512;SDS011;38422;53.172;6.974;2022-08-01T03:40:35;8.30;;;1.63;;
52512;SDS011;38422;53.172;6.974;2022-08-01T03:43:07;7.47;;;2.13;;
52512;SDS011;38422;53.172;6.974;2022-08-01T03:45:44;7.60;;;1.80;;
52512;SDS011;38422;53.172;6.974;2022-08-01T03:48:14;7.03;;;1.70;;
52512;SDS011;38422;53.172;6.974;2022-08-01T03:50:43;7.55;;;2.05;;
52512;SDS011;38422;53.172;6.974;2022-08-01T03:53:15;9.13;;;1.98;;
52512;SDS011;38422;53.172;6.974;2022-08-01T03:55:46;9.07;;;2.28;;
52512;SDS011;38422;53.172;6.974;2022-08-01T03:58:12;6.22;;;1.92;;
52512;SDS011;38422;53.172;6.974;2022-08-01T04:00:39;10.07;;;2.30;;
52512;SDS011;38422;53.172;6.974;2022-08-01T04:03:06;10.70;;;2.47;;
52512;SDS011;38422;53.172;6.974;2022-08-01T04:05:37;7.05;;;2.10;;
52512;SDS011;38422;53.172;6.974;2022-08-01T04:08:05;10.70;;;2.40;;
52512;SDS011;38422;53.172;6.974;2022-08-01T04:10:30;6.78;;;2.08;;
52512;SDS011;38422;53.172;6.974;2022-08-01T04:12:56;7.35;;;2.10;;
52512;SDS011;38422;53.172;6.974;2022-08-01T04:15:22;7.43;;;2.03;;
52512;SDS011;38422;53.172;6.974;2022-08-01T04:17:48;7.53;;;1.77;;
52512;SDS011;38422;53.172;6.974;2022-08-01T04:20:14;7.05;;;2.10;;
52512;SDS011;38422;53.172;6.974;2022-08-01T04:22:40;6.90;;;1.70;;
52512;SDS011;38422;53.172;6.974;2022-08-01T04:25:17;9.93;;;1.90;;
52512;SDS011;38422;53.172;6.974;2022-08-01T04:27:49;7.75;;;2.10;;
52512;SDS011;38422;53.172;6.974;2022-08-01T04:30:26;8.32;;;1.70;;
52512;SDS011;38422;53.172;6.974;2022-08-01T04:32:55;5.25;;;1.73;;
52512;SDS011;38422;53.172;6.974;2022-08-01T04:35:23;7.18;;;1.80;;
52512;SDS011;38422;53.172;6.974;2022-08-01T04:37:51;9.25;;;1.92;;
52512;SDS011;38422;53.172;6.974;2022-08-01T04:40:18;6.80;;;1.70;;
52512;SDS011;38422;53.172;6.974;2022-08-01T04:42:47;8.85;;;1.95;;
52512;SDS011;38422;53.172;6.974;2022-08-01T04:45:14;8.48;;;2.08;;
52512;SDS011;38422;53.172;6.974;2022-08-01T04:47:40;9.75;;;2.00;;
52512;SDS011;38422;53.172;6.974;2022-08-01T04:50:07;6.65;;;1.67;;
52512;SDS011;38422;53.172;6.974;2022-08-01T04:55:00;12.18;;;2.33;;
52512;SDS011;38422;53.172;6.974;2022-08-01T04:57:27;7.40;;;1.83;;
52512;SDS011;38422;53.172;6.974;2022-08-01T04:59:52;8.80;;;1.70;;
52512;SDS011;38422;53.172;6.974;2022-08-01T05:02:22;11.38;;;2.47;;
52512;SDS011;38422;53.172;6.974;2022-08-01T05:04:48;13.02;;;2.25;;
52512;SDS011;38422;53.172;6.974;2022-08-01T05:07:14;7.93;;;1.70;;
52512;SDS011;38422;53.172;6.974;2022-08-01T05:09:41;7.90;;;2.05;;
52512;SDS011;38422;53.172;6.974;2022-08-01T05:12:07;11.25;;;2.15;;
52512;SDS011;38422;53.172;6.974;2022-08-01T05:14:34;15.55;;;2.10;;
52512;SDS011;38422;53.172;6.974;2022-08-01T05:17:01;17.20;;;2.58;;
52512;SDS011;38422;53.172;6.974;2022-08-01T05:19:29;10.70;;;2.10;;
52512;SDS011;38422;53.172;6.974;2022-08-01T05:21:59;17.23;;;2.58;;
52512;SDS011;38422;53.172;6.974;2022-08-01T05:24:28;12.43;;;1.73;;
52512;SDS011;38422;53.172;6.974;2022-08-01T05:26:57;11.60;;;2.17;;
52512;SDS011;38422;53.172;6.974;2022-08-01T05:29:24;16.08;;;2.30;;
52512;SDS011;38422;53.172;6.974;2022-08-01T05:31:50;10.50;;;2.35;;
52512;SDS011;38422;53.172;6.974;2022-08-01T05:34:17;11.00;;;2.38;;
52512;SDS011;38422;53.172;6.974;2022-08-01T05:36:43;10.80;;;1.80;;
52512;SDS011;38422;53.172;6.974;2022-08-01T05:39:09;13.27;;;2.42;;
52512;SDS011;38422;53.172;6.974;2022-08-01T05:41:35;14.48;;;2.45;;
52512;SDS011;38422;53.172;6.974;2022-08-01T05:44:02;15.38;;;2.08;;
52512;SDS011;38422;53.172;6.974;2022-08-01T05:46:28;10.20;;;2.13;;
52512;SDS011;38422;53.172;6.974;2022-08-01T05:48:56;10.63;;;2.20;;
52512;SDS011;38422;53.172;6.974;2022-08-01T05:51:22;14.00;;;2.70;;
52512;SDS011;38422;53.172;6.974;2022-08-01T05:53:48;10.80;;;1.90;;
52512;SDS011;38422;53.172;6.974;2022-08-01T05:56:14;12.38;;;2.22;;
52512;SDS011;38422;53.172;6.974;2022-08-01T05:58:39;11.07;;;2.25;;
52512;SDS011;38422;53.172;6.974;2022-08-01T06:01:05;10.55;;;2.08;;
52512;SDS011;38422;53.172;6.974;2022-08-01T06:03:31;12.80;;;2.03;;
52512;SDS011;38422;53.172;6.974;2022-08-01T06:05:58;9.73;;;2.10;;
52512;SDS011;38422;53.172;6.974;2022-08-01T06:08:26;12.85;;;2.33;;
52512;SDS011;38422;53.172;6.974;2022-08-01T06:10:52;14.50;;;2.28;;
52512;SDS011;38422;53.172;6.974;2022-08-01T06:13:18;8.07;;;2.05;;
52512;SDS011;38422;53.172;6.974;2022-08-01T06:15:46;14.65;;;2.70;;
52512;SDS011;38422;53.172;6.974;2022-08-01T06:18:13;10.18;;;2.40;;
52512;SDS011;38422;53.172;6.974;2022-08-01T06:20:39;11.55;;;2.83;;
52512;SDS011;38422;53.172;6.974;2022-08-01T06:23:05;11.73;;;2.30;;
52512;SDS011;38422;53.172;6.974;2022-08-01T06:25:30;13.13;;;2.53;;
52512;SDS011;38422;53.172;6.974;2022-08-01T06:27:56;11.50;;;2.00;;
52512;SDS011;38422;53.172;6.974;2022-08-01T06:30:22;12.75;;;2.45;;
52512;SDS011;38422;53.172;6.974;2022-08-01T06:32:48;8.30;;;1.80;;
52512;SDS011;38422;53.172;6.974;2022-08-01T06:35:17;12.40;;;2.40;;
52512;SDS011;38422;53.172;6.974;2022-08-01T06:37:42;11.30;;;2.25;;
52512;SDS011;38422;53.172;6.974;2022-08-01T06:40:10;10.32;;;1.90;;
52512;SDS011;38422;53.172;6.974;2022-08-01T06:42:37;12.30;;;1.98;;
52512;SDS011;38422;53.172;6.974;2022-08-01T06:45:03;11.30;;;2.10;;
52512;SDS011;38422;53.172;6.974;2022-08-01T06:47:29;9.98;;;1.92;;
52512;SDS011;38422;53.172;6.974;2022-08-01T06:49:55;9.18;;;1.80;;
52512;SDS011;38422;53.172;6.974;2022-08-01T06:52:21;10.82;;;2.10;;
52512;SDS011;38422;53.172;6.974;2022-08-01T06:54:46;11.27;;;2.10;;
52512;SDS011;38422;53.172;6.974;2022-08-01T06:57:12;7.95;;;1.95;;
52512;SDS011;38422;53.172;6.974;2022-08-01T06:59:38;9.65;;;1.45;;
52512;SDS011;38422;53.172;6.974;2022-08-01T07:02:03;9.50;;;1.88;;
52512;SDS011;38422;53.172;6.974;2022-08-01T07:04:29;11.27;;;1.83;;
52512;SDS011;38422;53.172;6.974;2022-08-01T07:06:55;12.43;;;2.08;;
52512;SDS011;38422;53.172;6.974;2022-08-01T07:09:21;10.77;;;1.70;;
52512;SDS011;38422;53.172;6.974;2022-08-01T07:11:47;12.77;;;2.10;;
52512;SDS011;38422;53.172;6.974;2022-08-01T07:14:12;17.80;;;2.55;;
52512;SDS011;38422;53.172;6.974;2022-08-01T07:16:38;9.38;;;2.58;;
52512;SDS011;38422;53.172;6.974;2022-08-01T07:19:03;11.80;;;1.83;;
52512;SDS011;38422;53.172;6.974;2022-08-01T07:21:29;7.07;;;1.75;;
52512;SDS011;38422;53.172;6.974;2022-08-01T07:23:55;11.25;;;1.95;;
52512;SDS011;38422;53.172;6.974;2022-08-01T07:26:21;9.55;;;2.00;;
52512;SDS011;38422;53.172;6.974;2022-08-01T07:28:46;10.40;;;2.17;;
52512;SDS011;38422;53.172;6.974;2022-08-01T07:38:33;12.60;;;2.27;;
52512;SDS011;38422;53.172;6.974;2022-08-01T07:40:59;10.50;;;2.00;;
52512;SDS011;38422;53.172;6.974;2022-08-01T07:43:24;8.80;;;1.70;;
52512;SDS011;38422;53.172;6.974;2022-08-01T07:45:50;9.15;;;1.80;;
52512;SDS011;38422;53.172;6.974;2022-08-01T07:48:15;11.77;;;1.90;;
52512;SDS011;38422;53.172;6.974;2022-08-01T07:50:41;11.07;;;1.50;;
52512;SDS011;38422;53.172;6.974;2022-08-01T07:53:07;9.75;;;1.80;;
52512;SDS011;38422;53.172;6.974;2022-08-01T07:55:35;9.85;;;1.73;;
52512;SDS011;38422;53.172;6.974;2022-08-01T07:58:01;8.80;;;1.60;;
52512;SDS011;38422;53.172;6.974;2022-08-01T08:00:26;9.13;;;1.55;;
52512;SDS011;38422;53.172;6.974;2022-08-01T08:02:53;8.88;;;1.70;;
52512;SDS011;38422;53.172;6.974;2022-08-01T08:05:19;16.27;;;1.75;;
52512;SDS011;38422;53.172;6.974;2022-08-01T08:07:45;10.15;;;1.70;;
52512;SDS011;38422;53.172;6.974;2022-08-01T08:10:10;8.63;;;1.77;;
52512;SDS011;38422;53.172;6.974;2022-08-01T08:12:36;9.25;;;1.63;;
52512;SDS011;38422;53.172;6.974;2022-08-01T08:15:02;7.97;;;1.30;;
52512;SDS011;38422;53.172;6.974;2022-08-01T08:17:30;10.88;;;2.20;;
52512;SDS011;38422;53.172;6.974;2022-08-01T08:19:57;12.67;;;1.70;;
52512;SDS011;38422;53.172;6.974;2022-08-01T08:22:22;8.65;;;1.67;;
52512;SDS011;38422;53.172;6.974;2022-08-01T08:24:48;9.10;;;1.77;;
52512;SDS011;38422;53.172;6.974;2022-08-01T08:27:13;8.32;;;1.63;;
52512;SDS011;38422;53.172;6.974;2022-08-01T08:29:40;8.50;;;1.52;;
52512;SDS011;38422;53.172;6.974;2022-08-01T08:32:06;11.23;;;1.60;;
52512;SDS011;38422;53.172;6.974;2022-08-01T08:34:32;10.80;;;1.70;;
52512;SDS011;38422;53.172;6.974;2022-08-01T08:36:59;8.82;;;1.75;;
52512;SDS011;38422;53.172;6.974;2022-08-01T08:39:25;7.10;;;1.50;;
52512;SDS011;38422;53.172;6.974;2022-08-01T08:41:51;7.27;;;1.53;;
52512;SDS011;38422;53.172;6.974;2022-08-01T08:44:17;7.70;;;1.42;;
52512;SDS011;38422;53.172;6.974;2022-08-01T08:46:44;8.18;;;1.40;;
52512;SDS011;38422;53.172;6.974;2022-08-01T08:49:12;7.03;;;1.27;;
52512;SDS011;38422;53.172;6.974;2022-08-01T08:51:42;6.50;;;1.40;;
52512;SDS011;38422;53.172;6.974;2022-08-01T08:54:10;9.15;;;1.63;;
52512;SDS011;38422;53.172;6.974;2022-08-01T08:56:38;11.27;;;1.52;;
52512;SDS011;38422;53.172;6.974;2022-08-01T08:59:04;7.88;;;1.50;;
52512;SDS011;38422;53.172;6.974;2022-08-01T09:01:30;8.77;;;2.00;;
52512;SDS011;38422;53.172;6.974;2022-08-01T09:04:03;9.20;;;1.60;;
52512;SDS011;38422;53.172;6.974;2022-08-01T09:06:29;7.75;;;1.35;;
52512;SDS011;38422;53.172;6.974;2022-08-01T09:08:56;9.38;;;1.85;;
52512;SDS011;38422;53.172;6.974;2022-08-01T09:11:22;7.30;;;1.40;;
52512;SDS011;38422;53.172;6.974;2022-08-01T09:14:10;9.63;;;1.40;;
52512;SDS011;38422;53.172;6.974;2022-08-01T09:16:35;8.70;;;1.25;;
52512;SDS011;38422;53.172;6.974;2022-08-01T09:19:09;7.72;;;1.48;;
52512;SDS011;38422;53.172;6.974;2022-08-01T09:21:35;10.48;;;1.73;;
52512;SDS011;38422;53.172;6.974;2022-08-01T09:24:01;6.30;;;1.35;;
52512;SDS011;38422;53.172;6.974;2022-08-01T09:26:31;6.85;;;1.30;;
52512;SDS011;38422;53.172;6.974;2022-08-01T09:28:59;6.05;;;1.30;;
52512;SDS011;38422;53.172;6.974;2022-08-01T09:31:42;7.45;;;1.48;;
52512;SDS011;38422;53.172;6.974;2022-08-01T09:34:09;10.32;;;1.42;;
52512;SDS011;38422;53.172;6.974;2022-08-01T09:36:46;5.32;;;1.27;;
52512;SDS011;38422;53.172;6.974;2022-08-01T09:39:16;5.72;;;1.65;;
52512;SDS011;38422;53.172;6.974;2022-08-01T09:41:44;6.20;;;1.33;;
52512;SDS011;38422;53.172;6.974;2022-08-01T09:44:11;10.02;;;1.40;;
52512;SDS011;38422;53.172;6.974;2022-08-01T09:46:45;8.27;;;1.08;;
52512;SDS011;38422;53.172;6.974;2022-08-01T09:49:32;6.78;;;1.20;;
52512;SDS011;38422;53.172;6.974;2022-08-01T09:52:09;8.25;;;1.40;;
52512;SDS011;38422;53.172;6.974;2022-08-01T09:54:55;7.07;;;1.20;;
52512;SDS011;38422;53.172;6.974;2022-08-01T09:59:50;8.23;;;1.20;;
52512;SDS011;38422;53.172;6.974;2022-08-01T10:09:39;8.00;;;1.33;;
52512;SDS011;38422;53.172;6.974;2022-08-01T10:12:04;6.30;;;1.23;;
52512;SDS011;38422;53.172;6.974;2022-08-01T10:14:30;7.13;;;1.50;;
52512;SDS011;38422;53.172;6.974;2022-08-01T10:16:57;7.97;;;1.30;;
52512;SDS011;38422;53.172;6.974;2022-08-01T10:19:25;3.92;;;1.17;;
52512;SDS011;38422;53.172;6.974;2022-08-01T10:21:52;7.82;;;1.42;;
52512;SDS011;38422;53.172;6.974;2022-08-01T10:26:47;9.30;;;1.88;;
52512;SDS011;38422;53.172;6.974;2022-08-01T10:29:17;7.30;;;1.17;;
52512;SDS011;38422;53.172;6.974;2022-08-01T10:31:46;6.72;;;1.40;;
52512;SDS011;38422;53.172;6.974;2022-08-01T10:39:06;8.25;;;1.33;;
52512;SDS011;38422;53.172;6.974;2022-08-01T10:41:35;4.63;;;1.00;;
52512;SDS011;38422;53.172;6.974;2022-08-01T10:44:02;9.57;;;1.20;;
52512;SDS011;38422;53.172;6.974;2022-08-01T10:46:30;7.07;;;1.30;;
52512;SDS011;38422;53.172;6.974;2022-08-01T10:49:01;7.15;;;1.50;;
52512;SDS011;38422;53.172;6.974;2022-08-01T10:51:29;6.97;;;1.15;;
52512;SDS011;38422;53.172;6.974;2022-08-01T10:53:55;4.77;;;1.10;;
52512;SDS011;38422;53.172;6.974;2022-08-01T10:56:22;8.98;;;1.20;;
52512;SDS011;38422;53.172;6.974;2022-08-01T10:58:48;5.17;;;0.87;;
52512;SDS011;38422;53.172;6.974;2022-08-01T11:06:36;6.93;;;1.50;;
52512;SDS011;38422;53.172;6.974;2022-08-01T11:20:20;8.20;;;1.08;;
52512;SDS011;38422;53.172;6.974;2022-08-01T11:30:45;7.55;;;1.30;;
52512;SDS011;38422;53.172;6.974;2022-08-01T11:33:11;5.30;;;1.00;;
52512;SDS011;38422;53.172;6.974;2022-08-01T11:38:26;5.55;;;1.00;;
52512;SDS011;38422;53.172;6.974;2022-08-01T11:41:09;6.88;;;1.10;;
52512;SDS011;38422;53.172;6.974;2022-08-01T11:43:59;6.22;;;1.55;;
52512;SDS011;38422;53.172;6.974;2022-08-01T11:49:25;7.30;;;1.05;;
52512;SDS011;38422;53.172;6.974;2022-08-01T11:51:57;5.00;;;0.90;;
52512;SDS011;38422;53.172;6.974;2022-08-01T11:54:27;4.28;;;0.90;;
52512;SDS011;38422;53.172;6.974;2022-08-01T11:56:57;5.53;;;0.88;;
52512;SDS011;38422;53.172;6.974;2022-08-01T11:59:24;6.63;;;1.30;;
52512;SDS011;38422;53.172;6.974;2022-08-01T12:01:50;6.83;;;1.40;;
52512;SDS011;38422;53.172;6.974;2022-08-01T12:04:16;7.90;;;1.30;;
52512;SDS011;38422;53.172;6.974;2022-08-01T12:06:41;6.20;;;1.33;;
52512;SDS011;38422;53.172;6.974;2022-08-01T12:09:17;5.87;;;1.17;;
52512;SDS011;38422;53.172;6.974;2022-08-01T12:11:44;6.80;;;1.08;;
52512;SDS011;38422;53.172;6.974;2022-08-01T12:14:15;5.47;;;1.00;;
52512;SDS011;38422;53.172;6.974;2022-08-01T12:16:47;7.05;;;1.30;;
52512;SDS011;38422;53.172;6.974;2022-08-01T12:19:19;6.20;;;1.07;;
52512;SDS011;38422;53.172;6.974;2022-08-01T12:22:04;4.47;;;1.02;;
52512;SDS011;38422;53.172;6.974;2022-08-01T12:24:34;5.85;;;1.17;;
52512;SDS011;38422;53.172;6.974;2022-08-01T12:29:36;5.75;;;1.10;;
52512;SDS011;38422;53.172;6.974;2022-08-01T12:32:03;5.82;;;1.30;;
52512;SDS011;38422;53.172;6.974;2022-08-01T12:34:29;6.68;;;1.00;;
52512;SDS011;38422;53.172;6.974;2022-08-01T12:36:59;4.50;;;0.90;;
52512;SDS011;38422;53.172;6.974;2022-08-01T12:39:29;4.85;;;0.90;;
52512;SDS011;38422;53.172;6.974;2022-08-01T12:41:58;5.05;;;1.00;;
52512;SDS011;38422;53.172;6.974;2022-08-01T12:44:25;3.63;;;1.02;;
52512;SDS011;38422;53.172;6.974;2022-08-01T12:46:53;6.55;;;1.25;;
52512;SDS011;38422;53.172;6.974;2022-08-01T12:49:19;6.00;;;1.07;;
52512;SDS011;38422;53.172;6.974;2022-08-01T12:51:44;6.47;;;1.50;;
52512;SDS011;38422;53.172;6.974;2022-08-01T12:54:10;4.50;;;1.00;;
52512;SDS011;38422;53.172;6.974;2022-08-01T12:56:36;5.30;;;1.00;;
52512;SDS011;38422;53.172;6.974;2022-08-01T12:59:02;5.63;;;1.00;;
52512;SDS011;38422;53.172;6.974;2022-08-01T13:01:45;4.85;;;1.00;;
52512;SDS011;38422;53.172;6.974;2022-08-01T13:04:12;4.50;;;1.10;;
52512;SDS011;38422;53.172;6.974;2022-08-01T13:06:37;9.93;;;1.33;;
52512;SDS011;38422;53.172;6.974;2022-08-01T13:09:06;5.10;;;1.00;;
52512;SDS011;38422;53.172;6.974;2022-08-01T13:11:34;6.45;;;1.20;;
52512;SDS011;38422;53.172;6.974;2022-08-01T13:14:00;5.20;;;0.87;;
52512;SDS011;38422;53.172;6.974;2022-08-01T13:16:26;4.43;;;0.90;;
52512;SDS011;38422;53.172;6.974;2022-08-01T13:18:52;4.78;;;1.27;;
52512;SDS011;38422;53.172;6.974;2022-08-01T13:21:20;5.05;;;1.05;;
52512;SDS011;38422;53.172;6.974;2022-08-01T13:26:41;6.60;;;1.02;;
52512;SDS011;38422;53.172;6.974;2022-08-01T13:29:08;5.78;;;0.98;;
52512;SDS011;38422;53.172;6.974;2022-08-01T13:31:38;4.25;;;0.93;;
52512;SDS011;38422;53.172;6.974;2022-08-01T13:34:04;4.32;;;1.00;;
52512;SDS011;38422;53.172;6.974;2022-08-01T13:36:30;5.15;;;0.98;;
52512;SDS011;38422;53.172;6.974;2022-08-01T13:38:57;6.65;;;0.93;;
52512;SDS011;38422;53.172;6.974;2022-08-01T13:41:42;6.80;;;1.20;;
52512;SDS011;38422;53.172;6.974;2022-08-01T13:44:08;3.42;;;0.80;;
52512;SDS011;38422;53.172;6.974;2022-08-01T13:46:36;4.00;;;0.80;;
52512;SDS011;38422;53.172;6.974;2022-08-01T13:49:03;4.97;;;1.00;;
52512;SDS011;38422;53.172;6.974;2022-08-01T13:51:30;4.68;;;0.98;;
52512;SDS011;38422;53.172;6.974;2022-08-01T13:53:56;5.13;;;1.00;;
52512;SDS011;38422;53.172;6.974;2022-08-01T13:56:22;5.53;;;1.00;;
52512;SDS011;38422;53.172;6.974;2022-08-01T13:58:48;3.40;;;1.08;;
52512;SDS011;38422;53.172;6.974;2022-08-01T14:01:14;4.72;;;1.05;;
52512;SDS011;38422;53.172;6.974;2022-08-01T14:03:40;5.38;;;1.20;;
52512;SDS011;38422;53.172;6.974;2022-08-01T14:06:06;4.60;;;1.00;;
52512;SDS011;38422;53.172;6.974;2022-08-01T14:08:31;4.90;;;1.30;;
52512;SDS011;38422;53.172;6.974;2022-08-01T14:10:57;4.47;;;1.00;;
52512;SDS011;38422;53.172;6.974;2022-08-01T14:13:26;4.10;;;0.90;;
52512;SDS011;38422;53.172;6.974;2022-08-01T14:15:52;4.45;;;1.00;;
52512;SDS011;38422;53.172;6.974;2022-08-01T14:18:18;4.80;;;1.00;;
52512;SDS011;38422;53.172;6.974;2022-08-01T14:20:44;5.32;;;0.90;;
52512;SDS011;38422;53.172;6.974;2022-08-01T14:23:09;4.57;;;1.03;;
52512;SDS011;38422;53.172;6.974;2022-08-01T14:25:36;5.93;;;1.15;;
52512;SDS011;38422;53.172;6.974;2022-08-01T14:28:03;5.53;;;0.90;;
52512;SDS011;38422;53.172;6.974;2022-08-01T14:30:28;6.13;;;1.20;;
52512;SDS011;38422;53.172;6.974;2022-08-01T14:32:54;6.80;;;1.03;;
52512;SDS011;38422;53.172;6.974;2022-08-01T14:35:20;5.53;;;1.10;;
52512;SDS011;38422;53.172;6.974;2022-08-01T14:37:45;6.87;;;1.20;;
52512;SDS011;38422;53.172;6.974;2022-08-01T14:40:11;4.33;;;1.00;;
52512;SDS011;38422;53.172;6.974;2022-08-01T14:42:37;6.53;;;1.20;;
52512;SDS011;38422;53.172;6.974;2022-08-01T14:47:33;4.70;;;0.80;;
52512;SDS011;38422;53.172;6.974;2022-08-01T14:52:25;4.68;;;0.90;;
52512;SDS011;38422;53.172;6.974;2022-08-01T14:54:51;4.83;;;1.10;;
52512;SDS011;38422;53.172;6.974;2022-08-01T14:57:16;4.77;;;1.10;;
52512;SDS011;38422;53.172;6.974;2022-08-01T14:59:43;6.22;;;1.30;;
52512;SDS011;38422;53.172;6.974;2022-08-01T15:02:09;7.72;;;1.17;;
52512;SDS011;38422;53.172;6.974;2022-08-01T15:04:36;5.10;;;1.00;;
52512;SDS011;38422;53.172;6.974;2022-08-01T15:07:02;5.57;;;1.00;;
52512;SDS011;38422;53.172;6.974;2022-08-01T15:09:27;3.60;;;0.93;;
52512;SDS011;38422;53.172;6.974;2022-08-01T15:11:53;4.37;;;0.83;;
52512;SDS011;38422;53.172;6.974;2022-08-01T15:14:18;6.13;;;1.10;;
52512;SDS011;38422;53.172;6.974;2022-08-01T15:17:02;6.85;;;1.00;;
52512;SDS011;38422;53.172;6.974;2022-08-01T15:19:28;7.30;;;1.40;;
52512;SDS011;38422;53.172;6.974;2022-08-01T15:21:54;4.23;;;0.97;;
52512;SDS011;38422;53.172;6.974;2022-08-01T15:26:46;5.40;;;1.08;;
52512;SDS011;38422;53.172;6.974;2022-08-01T15:29:12;4.17;;;1.10;;
52512;SDS011;38422;53.172;6.974;2022-08-01T15:31:38;6.43;;;1.42;;
52512;SDS011;38422;53.172;6.974;2022-08-01T15:34:04;3.83;;;1.00;;
52512;SDS011;38422;53.172;6.974;2022-08-01T15:36:29;5.43;;;1.03;;
52512;SDS011;38422;53.172;6.974;2022-08-01T15:38:55;7.40;;;1.30;;
52512;SDS011;38422;53.172;6.974;2022-08-01T15:41:20;3.90;;;1.13;;
52512;SDS011;38422;53.172;6.974;2022-08-01T15:43:46;3.70;;;0.90;;
52512;SDS011;38422;53.172;6.974;2022-08-01T15:46:12;5.03;;;0.90;;
52512;SDS011;38422;53.172;6.974;2022-08-01T15:55:18;4.47;;;0.98;;
52512;SDS011;38422;53.172;6.974;2022-08-01T15:57:43;4.77;;;1.40;;
52512;SDS011;38422;53.172;6.974;2022-08-01T16:00:09;7.83;;;1.27;;
52512;SDS011;38422;53.172;6.974;2022-08-01T16:02:35;4.30;;;2.00;;
52512;SDS011;38422;53.172;6.974;2022-08-01T16:05:01;8.17;;;3.57;;
52512;SDS011;38422;53.172;6.974;2022-08-01T16:07:26;7.50;;;1.20;;
52512;SDS011;38422;53.172;6.974;2022-08-01T16:09:52;5.80;;;1.57;;
52512;SDS011;38422;53.172;6.974;2022-08-01T16:12:17;7.20;;;1.30;;
52512;SDS011;38422;53.172;6.974;2022-08-01T16:14:43;4.60;;;1.20;;
52512;SDS011;38422;53.172;6.974;2022-08-01T16:17:09;4.47;;;1.20;;
52512;SDS011;38422;53.172;6.974;2022-08-01T16:19:34;4.43;;;1.30;;
52512;SDS011;38422;53.172;6.974;2022-08-01T16:22:00;6.33;;;1.30;;
52512;SDS011;38422;53.172;6.974;2022-08-01T16:24:26;4.27;;;1.03;;
52512;SDS011;38422;53.172;6.974;2022-08-01T16:26:55;4.10;;;1.15;;
52512;SDS011;38422;53.172;6.974;2022-08-01T16:29:21;5.10;;;1.25;;
52512;SDS011;38422;53.172;6.974;2022-08-01T16:31:46;5.77;;;1.70;;